sensor_id;sensor_type;location;lat;lon;timestamp;pressure;altitude;pressure_sealevel;temperature
69597;BMP180;56802;51.184;-115.558;2022-09-16T00:02:14;86315.00;;;
69597;BMP180;56802;51.184;-115.558;2022-09-16T00:04:44;86315.00;;;
69597;BMP180;56802;51.184;-115.558;2022-09-16T00:07:13;86318.80;;;
69597;BMP180;56802;51.184;-115.558;2022-09-16T00:09:42;86317.40;;;
69597;BMP180;56802;51.184;-115.558;2022-09-16T00:12:11;86320.40;;;
69597;BMP180;56802;51.184;-115.558;2022-09-16T00:14:40;86315.80;;;
69597;BMP180;56802;51.184;-115.558;2022-09-16T00:17:10;86318.00;;;
69597;BMP180;56802;51.184;-115.558;2022-09-16T00:19:39;86321.20;;;
69597;BMP180;56802;51.184;-115.558;2022-09-16T00:22:08;86318.40;;;
69597;BMP180;56802;51.184;-115.558;2022-09-16T00:24:38;86314.20;;;
69597;BMP180;56802;51.184;-115.558;2022-09-16T00:27:10;86319.00;;;
69597;BMP180;56802;51.184;-115.558;2022-09-16T00:29:39;86320.00;;;
69597;BMP180;56802;51.184;-115.558;2022-09-16T00:32:08;86318.40;;;
69597;BMP180;56802;51.184;-115.558;2022-09-16T00:34:38;86320.80;;;
69597;BMP180;56802;51.184;-115.558;2022-09-16T00:37:07;86323.00;;;
69597;BMP180;56802;51.184;-115.558;2022-09-16T00:39:37;86319.60;;;
69597;BMP180;56802;51.184;-115.558;2022-09-16T00:42:10;86316.80;;;
69597;BMP180;56802;51.184;-115.558;2022-09-16T00:45:00;86317.00;;;
69597;BMP180;56802;51.184;-115.558;2022-09-16T00:48:04;86320.80;;;
69597;BMP180;56802;51.184;-115.558;2022-09-16T00:50:42;86321.20;;;
69597;BMP180;56802;51.184;-115.558;2022-09-16T00:53:24;86323.80;;;
69597;BMP180;56802;51.184;-115.558;2022-09-16T00:56:00;86318.60;;;
69597;BMP180;56802;51.184;-115.558;2022-09-16T00:58:46;86320.60;;;
69597;BMP180;56802;51.184;-115.558;2022-09-16T01:01:16;86327.40;;;
69597;BMP180;56802;51.184;-115.558;2022-09-16T01:03:55;86329.80;;;
69597;BMP180;56802;51.184;-115.558;2022-09-16T01:06:28;86330.60;;;
69597;BMP180;56802;51.184;-115.558;2022-09-16T01:08:58;86330.20;;;
69597;BMP180;56802;51.184;-115.558;2022-09-16T01:11:28;86330.20;;;
69597;BMP180;56802;51.184;-115.558;2022-09-16T01:13:58;86330.60;;;
69597;BMP180;56802;51.184;-115.558;2022-09-16T01:23:10;86336.40;;;
69597;BMP180;56802;51.184;-115.558;2022-09-16T01:37:48;86349.40;;;
69597;BMP180;56802;51.184;-115.558;2022-09-16T01:40:33;86352.20;;;
69597;BMP180;56802;51.184;-115.558;2022-09-16T01:49:31;86370.20;;;
69597;BMP180;56802;51.184;-115.558;2022-09-16T01:52:48;86372.00;;;
69597;BMP180;56802;51.184;-115.558;2022-09-16T02:01:20;86369.20;;;
69597;BMP180;56802;51.184;-115.558;2022-09-16T02:04:01;86371.20;;;
69597;BMP180;56802;51.184;-115.558;2022-09-16T02:06:33;86372.80;;;
69597;BMP180;56802;51.184;-115.558;2022-09-16T02:09:14;86373.80;;;
69597;BMP180;56802;51.184;-115.558;2022-09-16T02:11:49;86375.20;;;
69597;BMP180;56802;51.184;-115.558;2022-09-16T02:14:25;86379.60;;;
69597;BMP180;56802;51.184;-115.558;2022-09-16T02:16:59;86382.40;;;
69597;BMP180;56802;51.184;-115.558;2022-09-16T02:19:38;86384.00;;;
69597;BMP180;56802;51.184;-115.558;2022-09-16T02:22:17;86388.80;;;
69597;BMP180;56802;51.184;-115.558;2022-09-16T02:24:49;86383.80;;;
69597;BMP180;56802;51.184;-115.558;2022-09-16T02:27:22;86384.20;;;
69597;BMP180;56802;51.184;-115.558;2022-09-16T02:30:07;86390.20;;;
69597;BMP180;56802;51.184;-115.558;2022-09-16T02:32:47;86388.40;;;
69597;BMP180;56802;51.184;-115.558;2022-09-16T02:35:20;86391.40;;;
69597;BMP180;56802;51.184;-115.558;2022-09-16T02:38:47;86395.60;;;
69597;BMP180;56802;51.184;-115.558;2022-09-16T02:40:59;86397.80;;;
69597;BMP180;56802;51.184;-115.558;2022-09-16T02:43:29;86405.20;;;
69597;BMP180;56802;51.184;-115.558;2022-09-16T02:49:27;86403.40;;;
69597;BMP180;56802;51.184;-115.558;2022-09-16T02:52:20;86401.20;;;
69597;BMP180;56802;51.184;-115.558;2022-09-16T02:57:25;86401.20;;;
69597;BMP180;56802;51.184;-115.558;2022-09-16T02:59:55;86405.40;;;
69597;BMP180;56802;51.184;-115.558;2022-09-16T03:02:26;86407.60;;;
69597;BMP180;56802;51.184;-115.558;2022-09-16T03:04:55;86406.00;;;
69597;BMP180;56802;51.184;-115.558;2022-09-16T03:07:25;86410.80;;;
69597;BMP180;56802;51.184;-115.558;2022-09-16T03:09:54;86410.80;;;
69597;BMP180;56802;51.184;-115.558;2022-09-16T03:13:24;86408.60;;;
69597;BMP180;56802;51.184;-115.558;2022-09-16T03:16:16;86408.20;;;
69597;BMP180;56802;51.184;-115.558;2022-09-16T03:19:24;86401.00;;;
69597;BMP180;56802;51.184;-115.558;2022-09-16T03:22:26;86408.20;;;
69597;BMP180;56802;51.184;-115.558;2022-09-16T03:25:31;86409.80;;;
69597;BMP180;56802;51.184;-115.558;2022-09-16T03:28:18;86407.00;;;
69597;BMP180;56802;51.184;-115.558;2022-09-16T03:33:49;86406.60;;;
69597;BMP180;56802;51.184;-115.558;2022-09-16T03:36:27;86408.20;;;
69597;BMP180;56802;51.184;-115.558;2022-09-16T03:39:00;86405.40;;;
69597;BMP180;56802;51.184;-115.558;2022-09-16T03:41:32;86404.00;;;
69597;BMP180;56802;51.184;-115.558;2022-09-16T03:44:02;86406.00;;;
69597;BMP180;56802;51.184;-115.558;2022-09-16T03:46:32;86410.00;;;
69597;BMP180;56802;51.184;-115.558;2022-09-16T03:49:02;86411.20;;;
69597;BMP180;56802;51.184;-115.558;2022-09-16T03:51:31;86411.80;;;
69597;BMP180;56802;51.184;-115.558;2022-09-16T03:54:00;86411.20;;;
69597;BMP180;56802;51.184;-115.558;2022-09-16T03:56:30;86407.00;;;
69597;BMP180;56802;51.184;-115.558;2022-09-16T03:58:59;86406.20;;;
69597;BMP180;56802;51.184;-115.558;2022-09-16T04:01:28;86406.60;;;
69597;BMP180;56802;51.184;-115.558;2022-09-16T04:03:58;86405.80;;;
69597;BMP180;56802;51.184;-115.558;2022-09-16T04:06:27;86409.40;;;
69597;BMP180;56802;51.184;-115.558;2022-09-16T04:08:56;86409.80;;;
69597;BMP180;56802;51.184;-115.558;2022-09-16T04:11:29;86410.00;;;
69597;BMP180;56802;51.184;-115.558;2022-09-16T04:13:59;86410.20;;;
69597;BMP180;56802;51.184;-115.558;2022-09-16T04:16:29;86407.40;;;
69597;BMP180;56802;51.184;-115.558;2022-09-16T04:18:58;86406.40;;;
69597;BMP180;56802;51.184;-115.558;2022-09-16T04:21:30;86408.40;;;
69597;BMP180;56802;51.184;-115.558;2022-09-16T04:24:03;86410.60;;;
69597;BMP180;56802;51.184;-115.558;2022-09-16T04:26:40;86410.00;;;
69597;BMP180;56802;51.184;-115.558;2022-09-16T04:29:09;86411.40;;;
69597;BMP180;56802;51.184;-115.558;2022-09-16T04:31:39;86419.20;;;
69597;BMP180;56802;51.184;-115.558;2022-09-16T04:34:09;86413.40;;;
69597;BMP180;56802;51.184;-115.558;2022-09-16T04:36:41;86409.60;;;
69597;BMP180;56802;51.184;-115.558;2022-09-16T04:39:11;86408.60;;;
69597;BMP180;56802;51.184;-115.558;2022-09-16T04:41:41;86411.00;;;
69597;BMP180;56802;51.184;-115.558;2022-09-16T04:44:10;86411.20;;;
69597;BMP180;56802;51.184;-115.558;2022-09-16T04:46:40;86410.20;;;
69597;BMP180;56802;51.184;-115.558;2022-09-16T04:49:09;86407.00;;;
69597;BMP180;56802;51.184;-115.558;2022-09-16T04:51:40;86407.20;;;
69597;BMP180;56802;51.184;-115.558;2022-09-16T04:54:10;86404.80;;;
69597;BMP180;56802;51.184;-115.558;2022-09-16T04:56:39;86408.00;;;
69597;BMP180;56802;51.184;-115.558;2022-09-16T04:59:09;86406.20;;;
69597;BMP180;56802;51.184;-115.558;2022-09-16T05:01:39;86400.00;;;
69597;BMP180;56802;51.184;-115.558;2022-09-16T05:04:09;86400.60;;;
69597;BMP180;56802;51.184;-115.558;2022-09-16T05:06:41;86397.40;;;
69597;BMP180;56802;51.184;-115.558;2022-09-16T05:09:11;86401.60;;;
69597;BMP180;56802;51.184;-115.558;2022-09-16T05:11:41;86405.80;;;
69597;BMP180;56802;51.184;-115.558;2022-09-16T05:14:14;86406.60;;;
69597;BMP180;56802;51.184;-115.558;2022-09-16T05:16:45;86411.20;;;
69597;BMP180;56802;51.184;-115.558;2022-09-16T05:19:14;86406.40;;;
69597;BMP180;56802;51.184;-115.558;2022-09-16T05:21:44;86406.80;;;
69597;BMP180;56802;51.184;-115.558;2022-09-16T05:24:14;86407.60;;;
69597;BMP180;56802;51.184;-115.558;2022-09-16T05:26:43;86410.00;;;
69597;BMP180;56802;51.184;-115.558;2022-09-16T05:29:15;86416.80;;;
69597;BMP180;56802;51.184;-115.558;2022-09-16T05:31:45;86412.80;;;
69597;BMP180;56802;51.184;-115.558;2022-09-16T05:34:19;86408.60;;;
69597;BMP180;56802;51.184;-115.558;2022-09-16T05:36:49;86416.00;;;
69597;BMP180;56802;51.184;-115.558;2022-09-16T05:39:22;86417.40;;;
69597;BMP180;56802;51.184;-115.558;2022-09-16T05:41:57;86416.20;;;
69597;BMP180;56802;51.184;-115.558;2022-09-16T05:44:27;86416.20;;;
69597;BMP180;56802;51.184;-115.558;2022-09-16T05:46:57;86417.80;;;
69597;BMP180;56802;51.184;-115.558;2022-09-16T05:49:26;86411.80;;;
69597;BMP180;56802;51.184;-115.558;2022-09-16T05:51:55;86414.00;;;
69597;BMP180;56802;51.184;-115.558;2022-09-16T05:54:24;86415.60;;;
69597;BMP180;56802;51.184;-115.558;2022-09-16T05:56:54;86413.60;;;
69597;BMP180;56802;51.184;-115.558;2022-09-16T05:59:23;86415.40;;;
69597;BMP180;56802;51.184;-115.558;2022-09-16T06:01:53;86415.80;;;
69597;BMP180;56802;51.184;-115.558;2022-09-16T06:04:22;86408.80;;;
69597;BMP180;56802;51.184;-115.558;2022-09-16T06:06:51;86408.80;;;
69597;BMP180;56802;51.184;-115.558;2022-09-16T06:09:24;86409.80;;;
69597;BMP180;56802;51.184;-115.558;2022-09-16T06:11:53;86418.20;;;
69597;BMP180;56802;51.184;-115.558;2022-09-16T06:14:29;86419.00;;;
69597;BMP180;56802;51.184;-115.558;2022-09-16T06:16:58;86415.00;;;
69597;BMP180;56802;51.184;-115.558;2022-09-16T06:19:28;86418.80;;;
69597;BMP180;56802;51.184;-115.558;2022-09-16T06:21:57;86415.60;;;
69597;BMP180;56802;51.184;-115.558;2022-09-16T06:24:26;86414.20;;;
69597;BMP180;56802;51.184;-115.558;2022-09-16T06:26:55;86411.80;;;
69597;BMP180;56802;51.184;-115.558;2022-09-16T06:29:25;86409.60;;;
69597;BMP180;56802;51.184;-115.558;2022-09-16T06:31:54;86409.00;;;
69597;BMP180;56802;51.184;-115.558;2022-09-16T06:34:23;86407.80;;;
69597;BMP180;56802;51.184;-115.558;2022-09-16T06:36:54;86406.20;;;
69597;BMP180;56802;51.184;-115.558;2022-09-16T06:39:23;86402.80;;;
69597;BMP180;56802;51.184;-115.558;2022-09-16T06:41:52;86402.60;;;
69597;BMP180;56802;51.184;-115.558;2022-09-16T06:44:22;86400.00;;;
69597;BMP180;56802;51.184;-115.558;2022-09-16T06:46:51;86398.20;;;
69597;BMP180;56802;51.184;-115.558;2022-09-16T06:49:20;86398.60;;;
69597;BMP180;56802;51.184;-115.558;2022-09-16T06:51:50;86395.40;;;
69597;BMP180;56802;51.184;-115.558;2022-09-16T06:54:19;86396.20;;;
69597;BMP180;56802;51.184;-115.558;2022-09-16T06:56:49;86393.40;;;
69597;BMP180;56802;51.184;-115.558;2022-09-16T06:59:18;86397.80;;;
69597;BMP180;56802;51.184;-115.558;2022-09-16T07:01:47;86402.60;;;
69597;BMP180;56802;51.184;-115.558;2022-09-16T07:04:16;86390.00;;;
69597;BMP180;56802;51.184;-115.558;2022-09-16T07:06:45;86398.40;;;
69597;BMP180;56802;51.184;-115.558;2022-09-16T07:09:36;86396.00;;;
69597;BMP180;56802;51.184;-115.558;2022-09-16T07:12:07;86401.40;;;
69597;BMP180;56802;51.184;-115.558;2022-09-16T07:14:36;86402.20;;;
69597;BMP180;56802;51.184;-115.558;2022-09-16T07:17:05;86403.00;;;
69597;BMP180;56802;51.184;-115.558;2022-09-16T07:19:36;86404.60;;;
69597;BMP180;56802;51.184;-115.558;2022-09-16T07:22:06;86398.40;;;
69597;BMP180;56802;51.184;-115.558;2022-09-16T07:24:35;86402.00;;;
69597;BMP180;56802;51.184;-115.558;2022-09-16T07:27:04;86402.60;;;
69597;BMP180;56802;51.184;-115.558;2022-09-16T07:29:33;86406.00;;;
69597;BMP180;56802;51.184;-115.558;2022-09-16T07:32:02;86405.00;;;
69597;BMP180;56802;51.184;-115.558;2022-09-16T07:34:32;86406.80;;;
69597;BMP180;56802;51.184;-115.558;2022-09-16T07:37:01;86406.00;;;
69597;BMP180;56802;51.184;-115.558;2022-09-16T07:39:30;86402.40;;;
69597;BMP180;56802;51.184;-115.558;2022-09-16T07:42:00;86405.20;;;
69597;BMP180;56802;51.184;-115.558;2022-09-16T07:44:33;86397.20;;;
69597;BMP180;56802;51.184;-115.558;2022-09-16T07:47:02;86396.00;;;
69597;BMP180;56802;51.184;-115.558;2022-09-16T07:49:31;86392.60;;;
69597;BMP180;56802;51.184;-115.558;2022-09-16T07:52:01;86394.00;;;
69597;BMP180;56802;51.184;-115.558;2022-09-16T07:54:30;86389.80;;;
69597;BMP180;56802;51.184;-115.558;2022-09-16T07:56:59;86384.80;;;
69597;BMP180;56802;51.184;-115.558;2022-09-16T07:59:28;86388.00;;;
69597;BMP180;56802;51.184;-115.558;2022-09-16T08:01:58;86389.60;;;
69597;BMP180;56802;51.184;-115.558;2022-09-16T08:04:27;86385.20;;;
69597;BMP180;56802;51.184;-115.558;2022-09-16T08:06:56;86387.20;;;
69597;BMP180;56802;51.184;-115.558;2022-09-16T08:09:26;86385.00;;;
69597;BMP180;56802;51.184;-115.558;2022-09-16T08:12:15;86387.60;;;
69597;BMP180;56802;51.184;-115.558;2022-09-16T08:14:45;86382.20;;;
69597;BMP180;56802;51.184;-115.558;2022-09-16T08:17:14;86389.40;;;
69597;BMP180;56802;51.184;-115.558;2022-09-16T08:19:43;86391.20;;;
69597;BMP180;56802;51.184;-115.558;2022-09-16T08:22:13;86391.20;;;
69597;BMP180;56802;51.184;-115.558;2022-09-16T08:24:42;86388.20;;;
69597;BMP180;56802;51.184;-115.558;2022-09-16T08:27:11;86391.80;;;
69597;BMP180;56802;51.184;-115.558;2022-09-16T08:29:40;86389.60;;;
69597;BMP180;56802;51.184;-115.558;2022-09-16T08:32:09;86391.20;;;
69597;BMP180;56802;51.184;-115.558;2022-09-16T08:34:39;86387.00;;;
69597;BMP180;56802;51.184;-115.558;2022-09-16T08:37:08;86390.20;;;
69597;BMP180;56802;51.184;-115.558;2022-09-16T08:39:37;86391.40;;;
69597;BMP180;56802;51.184;-115.558;2022-09-16T08:45:48;86388.20;;;
69597;BMP180;56802;51.184;-115.558;2022-09-16T08:48:38;86393.20;;;
69597;BMP180;56802;51.184;-115.558;2022-09-16T08:51:16;86384.80;;;
69597;BMP180;56802;51.184;-115.558;2022-09-16T08:56:32;86379.00;;;
69597;BMP180;56802;51.184;-115.558;2022-09-16T08:59:16;86379.60;;;
69597;BMP180;56802;51.184;-115.558;2022-09-16T09:04:51;86382.60;;;
69597;BMP180;56802;51.184;-115.558;2022-09-16T09:07:38;86376.60;;;
69597;BMP180;56802;51.184;-115.558;2022-09-16T09:10:39;86381.40;;;
69597;BMP180;56802;51.184;-115.558;2022-09-16T09:16:41;86378.00;;;
69597;BMP180;56802;51.184;-115.558;2022-09-16T09:19:40;86377.20;;;
69597;BMP180;56802;51.184;-115.558;2022-09-16T09:22:31;86381.60;;;
69597;BMP180;56802;51.184;-115.558;2022-09-16T09:28:49;86376.20;;;
69597;BMP180;56802;51.184;-115.558;2022-09-16T09:31:35;86370.80;;;
69597;BMP180;56802;51.184;-115.558;2022-09-16T09:37:53;86374.60;;;
69597;BMP180;56802;51.184;-115.558;2022-09-16T09:40:45;86372.00;;;
69597;BMP180;56802;51.184;-115.558;2022-09-16T09:43:30;86367.00;;;
69597;BMP180;56802;51.184;-115.558;2022-09-16T09:49:01;86362.60;;;
69597;BMP180;56802;51.184;-115.558;2022-09-16T09:51:43;86364.80;;;
69597;BMP180;56802;51.184;-115.558;2022-09-16T09:54:29;86363.80;;;
69597;BMP180;56802;51.184;-115.558;2022-09-16T09:57:29;86370.00;;;
69597;BMP180;56802;51.184;-115.558;2022-09-16T10:00:18;86361.40;;;
69597;BMP180;56802;51.184;-115.558;2022-09-16T10:02:49;86361.20;;;
69597;BMP180;56802;51.184;-115.558;2022-09-16T10:05:28;86365.40;;;
69597;BMP180;56802;51.184;-115.558;2022-09-16T10:10:56;86366.20;;;
69597;BMP180;56802;51.184;-115.558;2022-09-16T10:13:27;86368.40;;;
69597;BMP180;56802;51.184;-115.558;2022-09-16T10:16:17;86364.20;;;
69597;BMP180;56802;51.184;-115.558;2022-09-16T10:19:04;86360.60;;;
69597;BMP180;56802;51.184;-115.558;2022-09-16T10:22:08;86360.20;;;
69597;BMP180;56802;51.184;-115.558;2022-09-16T10:24:40;86358.40;;;
69597;BMP180;56802;51.184;-115.558;2022-09-16T10:27:24;86364.80;;;
69597;BMP180;56802;51.184;-115.558;2022-09-16T10:30:12;86373.40;;;
69597;BMP180;56802;51.184;-115.558;2022-09-16T10:33:00;86366.00;;;
69597;BMP180;56802;51.184;-115.558;2022-09-16T10:35:35;86364.80;;;
69597;BMP180;56802;51.184;-115.558;2022-09-16T10:38:18;86369.40;;;
69597;BMP180;56802;51.184;-115.558;2022-09-16T10:40:59;86365.80;;;
69597;BMP180;56802;51.184;-115.558;2022-09-16T10:43:30;86362.80;;;
69597;BMP180;56802;51.184;-115.558;2022-09-16T10:45:59;86361.00;;;
69597;BMP180;56802;51.184;-115.558;2022-09-16T10:48:30;86359.20;;;
69597;BMP180;56802;51.184;-115.558;2022-09-16T10:51:05;86358.40;;;
69597;BMP180;56802;51.184;-115.558;2022-09-16T10:53:56;86355.20;;;
69597;BMP180;56802;51.184;-115.558;2022-09-16T10:56:34;86356.80;;;
69597;BMP180;56802;51.184;-115.558;2022-09-16T10:59:12;86353.40;;;
69597;BMP180;56802;51.184;-115.558;2022-09-16T11:02:24;86351.80;;;
69597;BMP180;56802;51.184;-115.558;2022-09-16T11:05:11;86345.40;;;
69597;BMP180;56802;51.184;-115.558;2022-09-16T11:10:54;86347.00;;;
69597;BMP180;56802;51.184;-115.558;2022-09-16T11:22:45;86346.40;;;
69597;BMP180;56802;51.184;-115.558;2022-09-16T11:31:05;86341.80;;;
69597;BMP180;56802;51.184;-115.558;2022-09-16T11:34:12;86336.20;;;
69597;BMP180;56802;51.184;-115.558;2022-09-16T11:42:42;86333.80;;;
69597;BMP180;56802;51.184;-115.558;2022-09-16T11:45:39;86334.40;;;
69597;BMP180;56802;51.184;-115.558;2022-09-16T11:52:00;86334.20;;;
69597;BMP180;56802;51.184;-115.558;2022-09-16T11:57:32;86332.80;;;
69597;BMP180;56802;51.184;-115.558;2022-09-16T12:00:12;86325.40;;;
69597;BMP180;56802;51.184;-115.558;2022-09-16T12:03:22;86321.40;;;
69597;BMP180;56802;51.184;-115.558;2022-09-16T12:06:06;86326.00;;;
69597;BMP180;56802;51.184;-115.558;2022-09-16T12:09:01;86321.40;;;
69597;BMP180;56802;51.184;-115.558;2022-09-16T12:11:47;86322.00;;;
69597;BMP180;56802;51.184;-115.558;2022-09-16T12:14:30;86317.60;;;
69597;BMP180;56802;51.184;-115.558;2022-09-16T12:17:21;86313.20;;;
69597;BMP180;56802;51.184;-115.558;2022-09-16T12:23:27;86313.60;;;
69597;BMP180;56802;51.184;-115.558;2022-09-16T12:35:40;86305.20;;;
69597;BMP180;56802;51.184;-115.558;2022-09-16T12:37:52;86305.20;;;
69597;BMP180;56802;51.184;-115.558;2022-09-16T12:52:56;86295.20;;;
69597;BMP180;56802;51.184;-115.558;2022-09-16T13:02:01;86299.20;;;
69597;BMP180;56802;51.184;-115.558;2022-09-16T13:04:53;86297.80;;;
69597;BMP180;56802;51.184;-115.558;2022-09-16T13:07:32;86291.60;;;
69597;BMP180;56802;51.184;-115.558;2022-09-16T13:10:31;86295.80;;;
69597;BMP180;56802;51.184;-115.558;2022-09-16T13:13:40;86290.00;;;
69597;BMP180;56802;51.184;-115.558;2022-09-16T13:16:10;86293.80;;;
69597;BMP180;56802;51.184;-115.558;2022-09-16T13:18:42;86285.80;;;
69597;BMP180;56802;51.184;-115.558;2022-09-16T13:21:28;86288.20;;;
69597;BMP180;56802;51.184;-115.558;2022-09-16T13:24:47;86292.80;;;
69597;BMP180;56802;51.184;-115.558;2022-09-16T13:26:57;86295.00;;;
69597;BMP180;56802;51.184;-115.558;2022-09-16T13:29:40;86289.80;;;
69597;BMP180;56802;51.184;-115.558;2022-09-16T13:32:37;86287.80;;;
69597;BMP180;56802;51.184;-115.558;2022-09-16T13:37:53;86286.60;;;
69597;BMP180;56802;51.184;-115.558;2022-09-16T13:40:29;86290.60;;;
69597;BMP180;56802;51.184;-115.558;2022-09-16T13:45:42;86287.40;;;
69597;BMP180;56802;51.184;-115.558;2022-09-16T13:48:17;86290.20;;;
69597;BMP180;56802;51.184;-115.558;2022-09-16T13:50:57;86293.40;;;
69597;BMP180;56802;51.184;-115.558;2022-09-16T13:53:32;86291.00;;;
69597;BMP180;56802;51.184;-115.558;2022-09-16T13:59:50;86290.00;;;
69597;BMP180;56802;51.184;-115.558;2022-09-16T14:11:32;86294.40;;;
69597;BMP180;56802;51.184;-115.558;2022-09-16T14:14:15;86295.00;;;
69597;BMP180;56802;51.184;-115.558;2022-09-16T14:17:23;86295.60;;;
69597;BMP180;56802;51.184;-115.558;2022-09-16T14:19:59;86294.20;;;
69597;BMP180;56802;51.184;-115.558;2022-09-16T14:22:28;86295.40;;;
69597;BMP180;56802;51.184;-115.558;2022-09-16T14:24:59;86290.80;;;
69597;BMP180;56802;51.184;-115.558;2022-09-16T14:27:45;86291.40;;;
69597;BMP180;56802;51.184;-115.558;2022-09-16T14:30:19;86289.60;;;
69597;BMP180;56802;51.184;-115.558;2022-09-16T14:32:48;86294.40;;;
69597;BMP180;56802;51.184;-115.558;2022-09-16T14:35:23;86289.20;;;
69597;BMP180;56802;51.184;-115.558;2022-09-16T14:38:02;86284.20;;;
69597;BMP180;56802;51.184;-115.558;2022-09-16T14:40:50;86278.80;;;
69597;BMP180;56802;51.184;-115.558;2022-09-16T14:43:20;86281.40;;;
69597;BMP180;56802;51.184;-115.558;2022-09-16T14:45:56;86276.40;;;
69597;BMP180;56802;51.184;-115.558;2022-09-16T14:48:36;86272.80;;;
69597;BMP180;56802;51.184;-115.558;2022-09-16T14:51:32;86277.80;;;
69597;BMP180;56802;51.184;-115.558;2022-09-16T14:54:03;86275.80;;;
69597;BMP180;56802;51.184;-115.558;2022-09-16T14:56:39;86269.00;;;
69597;BMP180;56802;51.184;-115.558;2022-09-16T14:59:12;86274.80;;;
69597;BMP180;56802;51.184;-115.558;2022-09-16T15:01:42;86277.80;;;
69597;BMP180;56802;51.184;-115.558;2022-09-16T15:04:24;86282.80;;;
69597;BMP180;56802;51.184;-115.558;2022-09-16T15:07:09;86278.40;;;
69597;BMP180;56802;51.184;-115.558;2022-09-16T15:09:57;86278.60;;;
69597;BMP180;56802;51.184;-115.558;2022-09-16T15:12:48;86277.80;;;
69597;BMP180;56802;51.184;-115.558;2022-09-16T15:15:28;86275.80;;;
69597;BMP180;56802;51.184;-115.558;2022-09-16T15:20:38;86272.00;;;
69597;BMP180;56802;51.184;-115.558;2022-09-16T15:23:25;86273.80;;;
69597;BMP180;56802;51.184;-115.558;2022-09-16T15:26:08;86270.80;;;
69597;BMP180;56802;51.184;-115.558;2022-09-16T15:29:34;86268.60;;;
69597;BMP180;56802;51.184;-115.558;2022-09-16T15:31:45;86266.40;;;
69597;BMP180;56802;51.184;-115.558;2022-09-16T15:36:58;86267.00;;;
69597;BMP180;56802;51.184;-115.558;2022-09-16T15:39:35;86269.20;;;
69597;BMP180;56802;51.184;-115.558;2022-09-16T15:44:57;86266.40;;;
69597;BMP180;56802;51.184;-115.558;2022-09-16T15:47:34;86266.40;;;
69597;BMP180;56802;51.184;-115.558;2022-09-16T15:50:16;86257.40;;;
69597;BMP180;56802;51.184;-115.558;2022-09-16T15:53:04;86253.60;;;
69597;BMP180;56802;51.184;-115.558;2022-09-16T15:55:54;86258.40;;;
69597;BMP180;56802;51.184;-115.558;2022-09-16T15:58:48;86247.40;;;
69597;BMP180;56802;51.184;-115.558;2022-09-16T16:01:42;86245.00;;;
69597;BMP180;56802;51.184;-115.558;2022-09-16T16:04:37;86235.60;;;
69597;BMP180;56802;51.184;-115.558;2022-09-16T16:07:07;86232.60;;;
69597;BMP180;56802;51.184;-115.558;2022-09-16T16:09:42;86228.60;;;
69597;BMP180;56802;51.184;-115.558;2022-09-16T16:12:16;86226.00;;;
69597;BMP180;56802;51.184;-115.558;2022-09-16T16:14:46;86222.40;;;
69597;BMP180;56802;51.184;-115.558;2022-09-16T16:17:20;86222.40;;;
69597;BMP180;56802;51.184;-115.558;2022-09-16T16:19:51;86219.80;;;
69597;BMP180;56802;51.184;-115.558;2022-09-16T16:22:21;86216.20;;;
69597;BMP180;56802;51.184;-115.558;2022-09-16T16:24:51;86214.80;;;
69597;BMP180;56802;51.184;-115.558;2022-09-16T16:27:21;86210.00;;;
69597;BMP180;56802;51.184;-115.558;2022-09-16T16:29:50;86216.40;;;
69597;BMP180;56802;51.184;-115.558;2022-09-16T16:32:19;86205.40;;;
69597;BMP180;56802;51.184;-115.558;2022-09-16T16:34:49;86205.40;;;
69597;BMP180;56802;51.184;-115.558;2022-09-16T16:37:19;86204.20;;;
69597;BMP180;56802;51.184;-115.558;2022-09-16T16:40:09;86201.20;;;
69597;BMP180;56802;51.184;-115.558;2022-09-16T16:42:40;86197.80;;;
69597;BMP180;56802;51.184;-115.558;2022-09-16T16:45:12;86198.20;;;
69597;BMP180;56802;51.184;-115.558;2022-09-16T16:47:42;86186.80;;;
69597;BMP180;56802;51.184;-115.558;2022-09-16T16:50:12;86185.60;;;
69597;BMP180;56802;51.184;-115.558;2022-09-16T16:52:42;86182.00;;;
69597;BMP180;56802;51.184;-115.558;2022-09-16T16:55:11;86180.80;;;
69597;BMP180;56802;51.184;-115.558;2022-09-16T16:57:41;86173.20;;;
69597;BMP180;56802;51.184;-115.558;2022-09-16T17:00:11;86171.20;;;
69597;BMP180;56802;51.184;-115.558;2022-09-16T17:02:42;86170.20;;;
69597;BMP180;56802;51.184;-115.558;2022-09-16T17:05:12;86167.60;;;
69597;BMP180;56802;51.184;-115.558;2022-09-16T17:07:42;86167.20;;;
69597;BMP180;56802;51.184;-115.558;2022-09-16T17:10:11;86156.80;;;
69597;BMP180;56802;51.184;-115.558;2022-09-16T17:12:40;86157.20;;;
69597;BMP180;56802;51.184;-115.558;2022-09-16T17:15:10;86142.20;;;
69597;BMP180;56802;51.184;-115.558;2022-09-16T17:17:40;86142.40;;;
69597;BMP180;56802;51.184;-115.558;2022-09-16T17:20:09;86135.00;;;
69597;BMP180;56802;51.184;-115.558;2022-09-16T17:22:39;86138.80;;;
69597;BMP180;56802;51.184;-115.558;2022-09-16T17:25:08;86137.80;;;
69597;BMP180;56802;51.184;-115.558;2022-09-16T17:27:38;86131.40;;;
69597;BMP180;56802;51.184;-115.558;2022-09-16T17:30:08;86127.40;;;
69597;BMP180;56802;51.184;-115.558;2022-09-16T17:32:37;86126.40;;;
69597;BMP180;56802;51.184;-115.558;2022-09-16T17:35:07;86127.80;;;
69597;BMP180;56802;51.184;-115.558;2022-09-16T17:37:36;86117.00;;;
69597;BMP180;56802;51.184;-115.558;2022-09-16T17:40:07;86122.20;;;
69597;BMP180;56802;51.184;-115.558;2022-09-16T17:42:36;86118.40;;;
69597;BMP180;56802;51.184;-115.558;2022-09-16T17:45:06;86113.40;;;
69597;BMP180;56802;51.184;-115.558;2022-09-16T17:47:35;86113.60;;;
69597;BMP180;56802;51.184;-115.558;2022-09-16T17:50:05;86113.80;;;
69597;BMP180;56802;51.184;-115.558;2022-09-16T17:52:34;86114.40;;;
69597;BMP180;56802;51.184;-115.558;2022-09-16T17:55:04;86108.80;;;
69597;BMP180;56802;51.184;-115.558;2022-09-16T17:57:33;86110.20;;;
69597;BMP180;56802;51.184;-115.558;2022-09-16T18:00:04;86109.60;;;